createdAt,value
2022-08-06T00:00:07.917Z,21.82
2022-08-06T00:03:01.391Z,21.81
2022-08-06T00:05:34.979Z,21.82
2022-08-06T00:08:04.472Z,21.87
2022-08-06T00:10:35.928Z,21.90
2022-08-06T00:13:05.531Z,21.90
2022-08-06T00:16:09.697Z,21.87
2022-08-06T00:18:31.594Z,21.81
2022-08-06T00:21:00.550Z,21.80
2022-08-06T00:23:52.276Z,21.92
2022-08-06T00:26:18.267Z,21.94
2022-08-06T00:28:47.000Z,21.92
2022-08-06T00:31:16.347Z,21.95
2022-08-06T00:33:56.740Z,21.96
2022-08-06T00:36:30.389Z,21.99
2022-08-06T00:39:08.959Z,22.02
2022-08-06T00:41:42.454Z,22.04
2022-08-06T00:44:30.342Z,21.92
2022-08-06T00:47:00.938Z,21.87
2022-08-06T00:49:49.188Z,21.84
2022-08-06T00:52:19.496Z,21.79
2022-08-06T00:54:50.061Z,21.84
2022-08-06T00:57:22.570Z,21.84
2022-08-06T00:59:51.799Z,21.85
2022-08-06T01:02:23.577Z,21.88
2022-08-06T01:05:07.004Z,21.91
2022-08-06T01:07:51.203Z,21.94
2022-08-06T01:10:31.046Z,21.98
2022-08-06T01:13:23.383Z,22.04
2022-08-06T01:16:09.554Z,22.06
2022-08-06T01:18:59.038Z,22.09
2022-08-06T01:22:31.185Z,22.09
2022-08-06T01:25:23.420Z,22.05
2022-08-06T01:28:06.977Z,21.94
2022-08-06T01:30:44.364Z,21.79
2022-08-06T01:33:30.467Z,21.66
2022-08-06T01:36:07.103Z,21.65
2022-08-06T01:38:50.647Z,21.65
2022-08-06T01:41:54.818Z,21.67
2022-08-06T01:44:36.240Z,21.66
2022-08-06T01:47:16.383Z,21.63
2022-08-06T01:50:00.666Z,21.60
2022-08-06T01:52:59.491Z,21.56
2022-08-06T01:55:56.300Z,21.52
2022-08-06T01:58:33.017Z,21.51
2022-08-06T02:01:09.989Z,21.49
2022-08-06T02:03:50.364Z,21.46
2022-08-06T02:06:41.898Z,21.40
2022-08-06T02:09:22.824Z,21.31
2022-08-06T02:12:06.777Z,21.22
2022-08-06T02:14:48.386Z,21.16
2022-08-06T02:17:48.644Z,21.16
2022-08-06T02:20:19.253Z,21.14
2022-08-06T02:23:04.142Z,21.15
2022-08-06T02:25:36.487Z,21.15
2022-08-06T02:28:06.604Z,21.12
2022-08-06T02:30:43.179Z,21.03
2022-08-06T02:33:18.150Z,20.93
2022-08-06T02:36:02.683Z,20.81
2022-08-06T02:38:52.271Z,20.76
2022-08-06T02:42:05.193Z,20.68
2022-08-06T02:45:14.310Z,20.63
2022-08-06T02:48:03.528Z,20.59
2022-08-06T02:50:53.469Z,20.54
2022-08-06T02:54:02.746Z,20.53
2022-08-06T02:56:29.290Z,20.56
2022-08-06T02:59:00.464Z,20.57
2022-08-06T03:01:39.294Z,20.57
2022-08-06T03:04:15.552Z,20.59
2022-08-06T03:06:48.061Z,20.63
2022-08-06T03:09:19.723Z,20.65
2022-08-06T03:11:49.714Z,20.62
2022-08-06T03:15:04.372Z,20.65
2022-08-06T03:17:12.549Z,20.68
2022-08-06T03:19:55.927Z,20.69
2022-08-06T03:22:34.735Z,20.71
2022-08-06T03:25:08.747Z,20.73
2022-08-06T03:27:43.701Z,20.75
2022-08-06T03:30:31.444Z,20.77
2022-08-06T03:33:28.746Z,20.81
2022-08-06T03:36:02.396Z,20.85
2022-08-06T03:38:41.008Z,20.88
2022-08-06T03:41:11.917Z,20.90
2022-08-06T03:44:02.961Z,20.90
2022-08-06T03:46:47.883Z,20.95
2022-08-06T03:49:40.516Z,21.02
2022-08-06T03:52:17.757Z,21.10
2022-08-06T03:54:56.673Z,21.16
2022-08-06T03:57:40.543Z,21.24
2022-08-06T04:00:28.054Z,21.31
2022-08-06T04:03:02.911Z,21.36
2022-08-06T04:05:34.517Z,21.41
2022-08-06T04:08:09.263Z,21.46
2022-08-06T04:10:56.722Z,21.46
2022-08-06T04:14:03.878Z,21.48
2022-08-06T04:16:32.917Z,21.52
2022-08-06T04:19:09.300Z,21.52
2022-08-06T04:22:59.377Z,21.53
2022-08-06T04:24:32.404Z,21.55
2022-08-06T04:27:09.725Z,21.60
2022-08-06T04:29:57.347Z,21.64
2022-08-06T04:32:32.034Z,21.67
2022-08-06T04:36:07.838Z,21.68
2022-08-06T04:38:00.957Z,21.74
2022-08-06T04:40:35.689Z,21.83
2022-08-06T04:43:19.528Z,21.91
2022-08-06T04:46:18.105Z,21.98
2022-08-06T04:48:47.037Z,22.08
2022-08-06T04:52:34.562Z,22.15
2022-08-06T04:54:07.284Z,22.28
2022-08-06T04:56:42.434Z,22.37
2022-08-06T04:59:19.430Z,22.45
2022-08-06T05:01:56.685Z,22.48
2022-08-06T05:04:34.545Z,22.50
2022-08-06T05:07:51.952Z,22.57
2022-08-06T05:10:31.485Z,22.62
2022-08-06T05:13:02.032Z,22.65
2022-08-06T05:15:50.974Z,22.73
2022-08-06T05:19:20.996Z,22.79
2022-08-06T05:22:06.040Z,22.84
2022-08-06T05:24:38.812Z,22.96
2022-08-06T05:27:17.937Z,23.10
2022-08-06T05:29:52.403Z,23.22
2022-08-06T05:32:24.747Z,23.33
2022-08-06T05:34:54.068Z,23.42
2022-08-06T05:38:02.110Z,23.48
2022-08-06T05:40:12.113Z,23.55
2022-08-06T05:42:40.976Z,23.60
2022-08-06T05:45:26.357Z,23.70
2022-08-06T05:47:59.505Z,23.73
2022-08-06T05:50:36.189Z,23.78
2022-08-06T05:53:20.633Z,23.76
2022-08-06T05:56:38.430Z,23.75
2022-08-06T05:59:38.173Z,23.82
2022-08-06T06:02:28.474Z,23.93
2022-08-06T06:06:04.769Z,23.93
2022-08-06T06:08:08.464Z,24.00
2022-08-06T06:10:43.733Z,23.97
2022-08-06T06:13:39.674Z,24.00
2022-08-06T06:16:47.528Z,24.05
2022-08-06T06:19:38.932Z,24.04
2022-08-06T06:22:37.250Z,24.09
2022-08-06T06:25:08.700Z,24.13
2022-08-06T06:28:04.649Z,24.13
2022-08-06T06:32:04.326Z,24.24
2022-08-06T06:35:33.852Z,24.31
2022-08-06T06:38:36.230Z,24.42
2022-08-06T06:41:24.225Z,24.45
2022-08-06T06:45:04.650Z,24.41
2022-08-06T06:47:59.233Z,24.59
2022-08-06T06:50:46.544Z,24.81
2022-08-06T06:53:19.432Z,24.90
2022-08-06T06:56:02.686Z,25.06
2022-08-06T06:59:00.224Z,25.17
2022-08-06T07:01:33.251Z,25.25
2022-08-06T07:04:09.674Z,25.30
2022-08-06T07:06:44.353Z,25.33
2022-08-06T07:09:41.314Z,25.39
2022-08-06T07:12:20.034Z,25.44
2022-08-06T07:15:00.673Z,25.30
2022-08-06T07:17:46.244Z,25.46
2022-08-06T07:20:30.298Z,25.69
2022-08-06T07:24:07.213Z,25.82
2022-08-06T07:26:51.081Z,26.01
2022-08-06T07:29:49.624Z,26.15
2022-08-06T07:32:32.610Z,26.04
2022-08-06T07:35:12.678Z,26.02
2022-08-06T07:37:59.371Z,26.08
2022-08-06T07:40:46.177Z,26.05
2022-08-06T07:43:33.051Z,25.88
2022-08-06T07:46:10.198Z,26.06
2022-08-06T07:49:17.908Z,26.19
2022-08-06T07:51:49.359Z,26.33
2022-08-06T07:54:33.989Z,26.63
2022-08-06T07:57:53.470Z,26.74
2022-08-06T08:00:27.436Z,26.84
2022-08-06T08:03:43.145Z,27.12
2022-08-06T08:07:18.399Z,27.33
2022-08-06T08:10:02.705Z,27.53
2022-08-06T08:12:37.590Z,27.49
2022-08-06T08:15:17.842Z,27.41
2022-08-06T08:18:35.584Z,27.53
2022-08-06T08:21:05.020Z,27.61
2022-08-06T08:23:38.986Z,27.72
2022-08-06T08:26:13.855Z,27.80
2022-08-06T08:28:42.638Z,27.55
2022-08-06T08:31:21.047Z,27.38
2022-08-06T08:34:43.889Z,27.74
2022-08-06T08:37:23.921Z,28.11
2022-08-06T08:39:54.906Z,28.46
2022-08-06T08:42:38.301Z,28.58
2022-08-06T08:45:13.129Z,28.54
2022-08-06T08:47:53.749Z,28.48
2022-08-06T08:50:31.356Z,28.35
2022-08-06T08:54:19.535Z,28.41
2022-08-06T08:57:07.337Z,28.25
2022-08-06T09:00:26.291Z,28.23
2022-08-06T09:02:57.228Z,28.07
2022-08-06T09:05:27.136Z,28.20
2022-08-06T09:08:04.478Z,28.09
2022-08-06T09:10:36.459Z,28.54
2022-08-06T09:13:22.875Z,28.49
2022-08-06T09:15:57.334Z,28.73
2022-08-06T09:18:59.544Z,28.80
2022-08-06T09:21:34.242Z,29.12
2022-08-06T09:24:05.671Z,29.30
2022-08-06T09:26:52.741Z,29.85
2022-08-06T09:29:31.714Z,29.96
2022-08-06T09:32:15.345Z,30.03
2022-08-06T09:34:46.643Z,29.67
2022-08-06T09:37:46.936Z,29.84
2022-08-06T09:40:21.287Z,30.03
2022-08-06T09:42:52.030Z,30.21
2022-08-06T09:45:43.225Z,30.27
2022-08-06T09:48:17.819Z,30.51
2022-08-06T09:50:51.545Z,30.65
2022-08-06T09:53:22.945Z,30.76
2022-08-06T09:55:57.577Z,30.69
2022-08-06T10:04:05.283Z,30.24
2022-08-06T10:06:22.259Z,30.06
2022-08-06T10:09:11.998Z,29.87
2022-08-06T10:12:00.663Z,29.97
2022-08-06T10:14:34.886Z,30.28
2022-08-06T10:17:21.668Z,30.55
2022-08-06T10:20:12.357Z,30.69
2022-08-06T10:22:58.825Z,30.89
2022-08-06T10:25:31.024Z,30.90
2022-08-06T10:28:16.011Z,31.02
2022-08-06T10:30:46.440Z,30.97
2022-08-06T10:33:22.743Z,30.94
2022-08-06T10:36:10.223Z,30.67
2022-08-06T10:38:52.915Z,30.60
2022-08-06T10:41:59.079Z,30.34
2022-08-06T10:44:53.882Z,30.41
2022-08-06T10:49:00.539Z,30.87
2022-08-06T10:50:30.394Z,31.57
2022-08-06T10:53:06.528Z,31.80
2022-08-06T10:55:44.235Z,31.63
2022-08-06T10:58:14.980Z,31.45
2022-08-06T11:00:53.098Z,31.38
2022-08-06T11:03:39.534Z,31.74
2022-08-06T11:06:35.892Z,31.57
2022-08-06T11:09:59.799Z,31.70
2022-08-06T11:12:47.893Z,31.80
2022-08-06T11:15:22.626Z,32.11
2022-08-06T11:17:55.902Z,32.38
2022-08-06T11:21:01.518Z,32.58
2022-08-06T11:23:58.937Z,32.57
2022-08-06T11:26:44.438Z,31.69
2022-08-06T11:29:16.518Z,31.79
2022-08-06T11:32:50.978Z,31.35
2022-08-06T11:35:36.232Z,30.96
2022-08-06T11:38:55.475Z,31.06
2022-08-06T11:41:51.618Z,32.04
2022-08-06T11:44:21.643Z,32.83
2022-08-06T11:47:30.782Z,33.32
2022-08-06T11:50:47.063Z,33.65
2022-08-06T11:53:52.191Z,33.71
2022-08-06T11:56:25.457Z,34.09
2022-08-06T11:59:17.207Z,34.37
2022-08-06T12:01:49.252Z,34.16
2022-08-06T12:04:58.957Z,33.80
2022-08-06T12:07:33.588Z,33.68
2022-08-06T12:10:13.096Z,33.27
2022-08-06T12:13:42.883Z,34.29
2022-08-06T12:16:39.029Z,34.43
2022-08-06T12:19:14.785Z,33.71
2022-08-06T12:21:49.206Z,33.03
2022-08-06T12:24:25.233Z,32.73
2022-08-06T12:26:55.110Z,32.95
2022-08-06T12:29:41.604Z,33.79
2022-08-06T12:32:29.131Z,34.20
2022-08-06T12:35:04.625Z,35.14
2022-08-06T12:42:53.241Z,36.30
2022-08-06T12:46:04.656Z,36.73
2022-08-06T12:48:12.096Z,36.94
2022-08-06T12:50:43.727Z,36.01
2022-08-06T12:53:20.718Z,35.02
2022-08-06T12:55:56.704Z,35.19
2022-08-06T12:58:45.484Z,36.28
2022-08-06T13:02:10.902Z,36.42
2022-08-06T13:04:16.345Z,35.76
2022-08-06T13:06:48.859Z,35.48
2022-08-06T13:09:21.552Z,35.74
2022-08-06T13:11:51.493Z,36.01
2022-08-06T13:15:46.300Z,36.35
2022-08-06T13:18:41.795Z,36.67
2022-08-06T13:21:33.740Z,36.79
2022-08-06T13:24:30.819Z,37.10
2022-08-06T13:27:07.998Z,37.27
2022-08-06T13:30:32.299Z,37.19
2022-08-06T13:32:33.528Z,37.31
2022-08-06T13:35:17.858Z,37.27
2022-08-06T13:38:42.154Z,38.37
2022-08-06T13:42:15.418Z,39.04
2022-08-06T13:44:47.262Z,38.65
2022-08-06T13:47:38.188Z,38.34
2022-08-06T13:50:20.786Z,37.24
2022-08-06T13:53:00.774Z,37.49
2022-08-06T13:56:03.684Z,37.63
2022-08-06T13:58:33.049Z,37.29
2022-08-06T14:01:02.105Z,37.30
2022-08-06T14:03:38.274Z,37.14
2022-08-06T14:06:10.627Z,37.08
2022-08-06T14:09:03.844Z,37.55
2022-08-06T14:13:02.976Z,37.96
2022-08-06T14:15:42.265Z,36.82
2022-08-06T14:18:17.064Z,35.27
2022-08-06T14:20:47.032Z,35.96
2022-08-06T14:23:16.081Z,36.54
2022-08-06T14:25:59.816Z,36.60
2022-08-06T14:28:32.376Z,36.09
2022-08-06T14:31:01.289Z,35.87
2022-08-06T14:33:47.882Z,36.10
2022-08-06T14:37:14.514Z,37.05
2022-08-06T14:41:01.366Z,37.39
2022-08-06T14:43:56.638Z,37.85
2022-08-06T14:46:30.611Z,37.72
2022-08-06T14:49:05.736Z,37.89
2022-08-06T14:52:19.413Z,37.81
2022-08-06T14:55:10.235Z,37.78
2022-08-06T14:58:11.405Z,37.40
2022-08-06T15:00:40.452Z,37.69
2022-08-06T15:03:13.474Z,37.78
2022-08-06T15:06:04.265Z,38.32
2022-08-06T15:08:35.863Z,37.68
2022-08-06T15:11:17.940Z,37.94
2022-08-06T15:13:51.646Z,37.68
2022-08-06T15:16:47.594Z,38.13
2022-08-06T15:19:30.271Z,38.05
2022-08-06T15:22:01.328Z,37.96
2022-08-06T15:24:35.736Z,37.16
2022-08-06T15:27:09.217Z,37.17
2022-08-06T15:29:38.413Z,36.93
2022-08-06T15:32:17.753Z,37.11
2022-08-06T15:36:08.490Z,37.29
2022-08-06T15:38:41.062Z,36.76
2022-08-06T15:41:11.313Z,36.96
2022-08-06T15:43:51.414Z,36.94
2022-08-06T15:48:28.625Z,36.83
2022-08-06T15:51:30.008Z,36.50
2022-08-06T15:53:57.728Z,36.55
2022-08-06T15:57:06.761Z,36.54
2022-08-06T16:01:55.388Z,36.42
2022-08-06T16:05:32.359Z,36.34
2022-08-06T16:08:32.982Z,36.03
2022-08-06T16:11:47.986Z,36.07
2022-08-06T16:14:36.763Z,36.11
2022-08-06T16:17:09.733Z,36.01
2022-08-06T16:19:49.073Z,35.79
2022-08-06T16:22:19.461Z,35.51
2022-08-06T16:24:49.183Z,35.48
2022-08-06T16:27:20.823Z,35.46
2022-08-06T16:29:50.349Z,35.06
2022-08-06T16:32:59.994Z,35.00
2022-08-06T16:35:29.804Z,34.83
2022-08-06T16:38:02.266Z,34.72
2022-08-06T16:40:31.660Z,34.43
2022-08-06T16:43:00.573Z,34.25
2022-08-06T16:45:37.351Z,33.94
2022-08-06T16:48:25.656Z,33.89
2022-08-06T16:51:02.267Z,34.00
2022-08-06T16:55:27.788Z,33.78
2022-08-06T16:58:41.858Z,33.62
2022-08-06T17:02:14.230Z,33.61
2022-08-06T17:04:03.636Z,33.28
2022-08-06T17:06:37.683Z,32.62
2022-08-06T17:09:17.319Z,32.11
2022-08-06T17:18:03.612Z,30.86
2022-08-06T17:20:33.523Z,30.47
2022-08-06T17:25:54.108Z,30.05
2022-08-06T17:31:58.361Z,29.80
2022-08-06T17:34:30.731Z,29.56
2022-08-06T17:37:03.788Z,29.40
2022-08-06T17:39:51.762Z,29.26
2022-08-06T17:42:20.706Z,29.15
2022-08-06T17:45:31.286Z,28.97
2022-08-06T17:48:01.515Z,28.82
2022-08-06T17:50:42.358Z,28.62
2022-08-06T17:53:20.172Z,28.44
2022-08-06T17:56:00.019Z,28.24
2022-08-06T17:58:39.163Z,28.02
2022-08-06T18:01:43.980Z,27.81
2022-08-06T18:04:21.879Z,27.60
2022-08-06T18:06:58.396Z,27.50
2022-08-06T18:10:10.856Z,27.40
2022-08-06T18:12:52.885Z,27.30
2022-08-06T18:15:40.280Z,27.25
2022-08-06T18:18:10.622Z,27.20
2022-08-06T18:20:43.919Z,27.16
2022-08-06T18:23:20.782Z,27.12
2022-08-06T18:25:56.034Z,27.04
2022-08-06T18:29:20.481Z,26.87
2022-08-06T18:31:58.544Z,26.79
2022-08-06T18:34:30.018Z,26.71
2022-08-06T18:37:05.740Z,26.64
2022-08-06T18:40:38.803Z,26.55
2022-08-06T18:43:09.623Z,26.44
2022-08-06T18:45:59.131Z,26.34
2022-08-06T18:48:29.456Z,26.27
2022-08-06T18:50:58.653Z,26.21
2022-08-06T18:54:01.526Z,26.13
2022-08-06T18:56:17.028Z,26.00
2022-08-06T18:58:46.992Z,25.92
2022-08-06T19:01:21.046Z,25.86
2022-08-06T19:03:52.439Z,25.87
2022-08-06T19:06:29.359Z,25.86
2022-08-06T19:08:59.152Z,25.88
2022-08-06T19:11:38.876Z,25.86
2022-08-06T19:14:19.654Z,25.79
2022-08-06T19:16:50.715Z,25.70
2022-08-06T19:19:46.143Z,25.57
2022-08-06T19:22:18.431Z,25.55
2022-08-06T19:24:57.189Z,25.52
2022-08-06T19:28:31.436Z,25.47
2022-08-06T19:30:38.791Z,25.48
2022-08-06T19:33:16.532Z,25.50
2022-08-06T19:36:07.346Z,25.54
2022-08-06T19:38:35.688Z,25.62
2022-08-06T19:41:06.902Z,25.68
2022-08-06T19:44:27.350Z,25.74
2022-08-06T19:46:29.252Z,25.81
2022-08-06T19:49:00.778Z,25.86
2022-08-06T19:52:04.027Z,25.86
2022-08-06T19:54:26.138Z,25.85
2022-08-06T19:57:08.348Z,25.83
2022-08-06T20:00:51.855Z,25.81
2022-08-06T20:02:28.788Z,25.77
2022-08-06T20:04:59.260Z,25.74
2022-08-06T20:08:40.374Z,25.71
2022-08-06T20:12:02.307Z,25.65
2022-08-06T20:14:03.129Z,25.61
2022-08-06T20:16:31.957Z,25.61
2022-08-06T20:19:00.650Z,25.63
2022-08-06T20:21:43.231Z,25.65
2022-08-06T20:24:15.348Z,25.67
2022-08-06T20:26:59.180Z,25.67
2022-08-06T20:29:34.598Z,25.66
2022-08-06T20:32:18.814Z,25.67
2022-08-06T20:34:51.900Z,25.65
2022-08-06T20:37:20.575Z,25.63
2022-08-06T20:39:50.797Z,25.58
2022-08-06T20:42:20.199Z,25.54
2022-08-06T20:44:51.771Z,25.44
2022-08-06T20:47:45.595Z,25.33
2022-08-06T20:50:12.086Z,25.23
2022-08-06T20:52:41.497Z,25.18
2022-08-06T20:55:14.452Z,25.11
2022-08-06T20:57:47.761Z,25.06
2022-08-06T21:00:27.880Z,25.02
2022-08-06T21:03:27.848Z,24.96
2022-08-06T21:05:47.163Z,24.88
2022-08-06T21:08:27.195Z,24.80
2022-08-06T21:11:00.580Z,24.72
2022-08-06T21:13:59.611Z,24.60
2022-08-06T21:17:01.209Z,24.49
2022-08-06T21:19:40.940Z,24.35
2022-08-06T21:22:10.950Z,24.16
2022-08-06T21:24:39.639Z,24.13
2022-08-06T21:27:48.739Z,24.06
2022-08-06T21:30:36.959Z,23.97
2022-08-06T21:33:06.334Z,23.86
2022-08-06T21:35:45.742Z,23.78
2022-08-06T21:38:24.753Z,23.73
2022-08-06T21:40:56.626Z,23.64
2022-08-06T21:43:29.276Z,23.54
2022-08-06T21:46:27.237Z,23.45
2022-08-06T21:48:58.202Z,23.37
2022-08-06T21:52:28.168Z,23.29
2022-08-06T21:56:38.750Z,23.19
2022-08-06T21:58:03.910Z,22.96
2022-08-06T22:00:42.233Z,23.04
2022-08-06T22:04:35.273Z,22.96
2022-08-06T22:09:58.092Z,22.85
2022-08-06T22:12:36.916Z,22.82
2022-08-06T22:15:12.303Z,22.72
2022-08-06T22:18:02.048Z,22.70
2022-08-06T22:20:31.038Z,22.61
2022-08-06T22:23:02.079Z,22.52
2022-08-06T22:25:31.210Z,22.42
2022-08-06T22:28:03.229Z,22.30
2022-08-06T22:30:33.200Z,22.21
2022-08-06T22:33:12.286Z,22.21
2022-08-06T22:35:57.476Z,22.09
2022-08-06T22:38:32.246Z,22.00
2022-08-06T22:41:01.360Z,21.93
2022-08-06T22:43:57.007Z,21.86
2022-08-06T22:46:18.753Z,21.84
2022-08-06T22:48:50.081Z,21.81
2022-08-06T22:51:34.297Z,21.73
2022-08-06T22:54:28.988Z,21.56
2022-08-06T22:57:03.128Z,21.43
2022-08-06T23:00:10.934Z,21.36
2022-08-06T23:02:24.738Z,21.29
2022-08-06T23:04:54.997Z,21.27
2022-08-06T23:07:26.227Z,21.24
2022-08-06T23:10:04.448Z,21.21
2022-08-06T23:12:36.716Z,21.21
2022-08-06T23:15:30.555Z,21.24
2022-08-06T23:18:00.408Z,21.22
2022-08-06T23:20:32.916Z,21.10
2022-08-06T23:23:04.767Z,21.00
2022-08-06T23:26:01.136Z,20.89
2022-08-06T23:28:23.299Z,20.72
2022-08-06T23:30:57.093Z,20.65
2022-08-06T23:33:38.764Z,20.64
2022-08-06T23:36:16.133Z,20.66
2022-08-06T23:38:44.811Z,20.69
2022-08-06T23:41:24.449Z,20.73
2022-08-06T23:44:18.675Z,20.72
2022-08-06T23:46:51.094Z,20.74
2022-08-06T23:49:27.513Z,20.73
2022-08-06T23:52:03.447Z,20.68
2022-08-06T23:54:33.343Z,20.65
2022-08-06T23:57:03.954Z,20.62
2022-08-06T23:59:45.344Z,20.61
